createdAt,value
2022-11-02T00:10:11.085Z,13.30
2022-11-02T00:40:20.001Z,11.60
2022-11-02T01:10:32.518Z,11.70
2022-11-02T01:40:43.080Z,13.93
2022-11-02T02:10:51.597Z,11.60
2022-11-02T02:41:07.274Z,14.50
2022-11-02T03:11:19.372Z,19.47
2022-11-02T03:41:33.630Z,15.30
2022-11-02T04:11:56.651Z,22.57
2022-11-02T04:42:05.857Z,9.97
2022-11-02T05:12:32.545Z,8.83
2022-11-02T05:42:42.466Z,11.63
2022-11-02T06:12:57.765Z,18.93
2022-11-02T06:43:21.897Z,11.53
2022-11-02T07:13:30.904Z,9.73
2022-11-02T07:43:44.063Z,7.32
2022-11-02T08:14:19.094Z,7.35
2022-11-02T08:44:28.382Z,7.85
2022-11-02T09:14:41.281Z,8.20
2022-11-02T09:44:59.879Z,5.45
2022-11-02T10:15:14.142Z,5.60
2022-11-02T10:45:40.833Z,5.82
2022-11-02T11:15:56.925Z,6.38
2022-11-02T11:46:07.927Z,4.22
2022-11-02T12:16:28.777Z,5.82
2022-11-02T12:46:48.876Z,5.32
2022-11-02T13:17:04.797Z,8.25
2022-11-02T15:20:30.373Z,11.60
2022-11-02T15:50:50.377Z,17.40
2022-11-02T16:21:06.333Z,14.40
2022-11-02T16:51:21.674Z,19.23
2022-11-02T17:21:39.294Z,17.77
2022-11-02T17:51:48.926Z,21.40
2022-11-02T18:22:00.077Z,28.03
2022-11-02T18:52:21.632Z,19.10
2022-11-02T19:22:31.212Z,21.73
2022-11-02T19:52:43.057Z,15.20
2022-11-02T20:22:58.003Z,13.90
2022-11-02T20:53:09.314Z,26.50
2022-11-02T21:23:18.425Z,16.07
2022-11-02T21:53:27.067Z,18.20
2022-11-02T22:23:38.334Z,22.77
2022-11-02T22:53:57.445Z,19.97
2022-11-02T23:24:19.711Z,22.40
2022-11-02T23:54:41.989Z,24.73
